Allensville, Kentucky
Current Conditions -  °F | °C
As of 5:55 PM on Thursday 27 Nov 2014 (Local Time) from KM91 Reporting Station
Overcast Overcast  
Wind Chill: 25°   Ceiling: 3600
Heat Index: 30°   Visibility: 10mi
Dew Point: 23°   Wind: 5mph
Humidity: 75%   Direction: 340°NNW
Pressure: 30.46"   Gusts: NA
Location:  36.72°N, 87.07°W
Report Text: KM91 272355Z AUTO 34004KT 10SM OVC036 M01/M05 A3046 RMK
Loading
Personal Weather Stations






























Interactive Weather Map New forecast layout! Learn more

10-Day Weather Forecast

Advertisements
Track Severe Weather on mobile